sensor_id;sensor_type;location;lat;lon;timestamp;pressure;altitude;pressure_sealevel;temperature;humidity
33949;BME280;20229;49.856;19.030;2023-04-21T00:03:52;101776.05;;;5.67;92.83
33949;BME280;20229;49.856;19.030;2023-04-21T00:09:07;101771.66;;;5.60;92.76
33949;BME280;20229;49.856;19.030;2023-04-21T00:14:24;101777.17;;;5.55;92.87
33949;BME280;20229;49.856;19.030;2023-04-21T00:19:37;101772.80;;;5.48;93.09
33949;BME280;20229;49.856;19.030;2023-04-21T00:24:51;101779.16;;;5.44;93.01
33949;BME280;20229;49.856;19.030;2023-04-21T00:30:07;101772.08;;;5.37;92.96
33949;BME280;20229;49.856;19.030;2023-04-21T00:35:21;101772.20;;;5.31;93.32
33949;BME280;20229;49.856;19.030;2023-04-21T00:40:34;101782.21;;;5.25;93.71
33949;BME280;20229;49.856;19.030;2023-04-21T00:45:50;101770.58;;;5.20;94.06
33949;BME280;20229;49.856;19.030;2023-04-21T00:51:04;101772.40;;;5.18;94.17
33949;BME280;20229;49.856;19.030;2023-04-21T00:56:19;101774.27;;;5.15;94.37
33949;BME280;20229;49.856;19.030;2023-04-21T01:01:34;101777.87;;;5.15;95.23
33949;BME280;20229;49.856;19.030;2023-04-21T01:06:49;101768.77;;;5.19;95.71
33949;BME280;20229;49.856;19.030;2023-04-21T01:12:10;101763.35;;;5.19;95.49
33949;BME280;20229;49.856;19.030;2023-04-21T01:17:25;101766.05;;;5.19;95.63
33949;BME280;20229;49.856;19.030;2023-04-21T01:22:40;101772.45;;;5.15;95.41
33949;BME280;20229;49.856;19.030;2023-04-21T01:27:54;101764.33;;;5.15;95.46
33949;BME280;20229;49.856;19.030;2023-04-21T01:33:08;101766.14;;;5.16;96.99
33949;BME280;20229;49.856;19.030;2023-04-21T01:38:22;101776.79;;;5.27;97.62
33949;BME280;20229;49.856;19.030;2023-04-21T01:43:37;101775.66;;;5.39;98.82
33949;BME280;20229;49.856;19.030;2023-04-21T01:48:51;101771.05;;;5.44;98.94
33949;BME280;20229;49.856;19.030;2023-04-21T01:54:05;101761.14;;;5.43;98.47
33949;BME280;20229;49.856;19.030;2023-04-21T01:59:20;101763.00;;;5.41;98.29
33949;BME280;20229;49.856;19.030;2023-04-21T02:04:35;101763.05;;;5.38;98.35
33949;BME280;20229;49.856;19.030;2023-04-21T02:09:49;101764.73;;;5.43;98.75
33949;BME280;20229;49.856;19.030;2023-04-21T02:15:04;101758.27;;;5.52;99.31
33949;BME280;20229;49.856;19.030;2023-04-21T02:20:18;101756.16;;;5.68;98.69
33949;BME280;20229;49.856;19.030;2023-04-21T02:25:32;101754.98;;;5.81;99.31
33949;BME280;20229;49.856;19.030;2023-04-21T02:30:46;101760.10;;;5.98;99.60
33949;BME280;20229;49.856;19.030;2023-04-21T02:36:00;101759.89;;;6.07;99.08
33949;BME280;20229;49.856;19.030;2023-04-21T02:41:14;101759.72;;;6.16;98.86
33949;BME280;20229;49.856;19.030;2023-04-21T02:46:28;101763.08;;;6.28;98.37
33949;BME280;20229;49.856;19.030;2023-04-21T02:51:42;101758.36;;;6.37;98.17
33949;BME280;20229;49.856;19.030;2023-04-21T02:56:55;101752.87;;;6.40;97.53
33949;BME280;20229;49.856;19.030;2023-04-21T03:02:10;101757.99;;;6.53;96.78
33949;BME280;20229;49.856;19.030;2023-04-21T03:07:24;101757.91;;;6.57;97.03
33949;BME280;20229;49.856;19.030;2023-04-21T03:12:38;101761.45;;;6.61;96.62
33949;BME280;20229;49.856;19.030;2023-04-21T03:17:52;101761.40;;;6.62;96.95
33949;BME280;20229;49.856;19.030;2023-04-21T03:23:05;101762.17;;;6.67;96.23
33949;BME280;20229;49.856;19.030;2023-04-21T03:28:19;101756.66;;;6.70;96.64
33949;BME280;20229;49.856;19.030;2023-04-21T03:33:33;101765.69;;;6.73;95.50
33949;BME280;20229;49.856;19.030;2023-04-21T03:38:53;101759.37;;;6.72;95.79
33949;BME280;20229;49.856;19.030;2023-04-21T03:44:06;101770.17;;;6.74;95.44
33949;BME280;20229;49.856;19.030;2023-04-21T03:49:20;101765.62;;;6.76;95.78
33949;BME280;20229;49.856;19.030;2023-04-21T03:54:34;101767.40;;;6.77;95.77
33949;BME280;20229;49.856;19.030;2023-04-21T03:59:48;101778.25;;;6.77;95.72
33949;BME280;20229;49.856;19.030;2023-04-21T04:10:22;101784.38;;;6.85;95.16
33949;BME280;20229;49.856;19.030;2023-04-21T04:15:36;101785.24;;;6.87;94.41
33949;BME280;20229;49.856;19.030;2023-04-21T04:20:49;101786.90;;;6.92;94.96
33949;BME280;20229;49.856;19.030;2023-04-21T04:26:03;101784.87;;;7.02;94.51
33949;BME280;20229;49.856;19.030;2023-04-21T04:31:18;101793.74;;;7.10;94.23
33949;BME280;20229;49.856;19.030;2023-04-21T04:36:31;101797.00;;;7.25;94.68
33949;BME280;20229;49.856;19.030;2023-04-21T04:41:46;101797.63;;;7.34;93.95
33949;BME280;20229;49.856;19.030;2023-04-21T04:47:01;101798.14;;;7.50;93.21
33949;BME280;20229;49.856;19.030;2023-04-21T04:52:16;101799.62;;;7.63;93.04
33949;BME280;20229;49.856;19.030;2023-04-21T04:57:30;101799.18;;;7.79;92.26
33949;BME280;20229;49.856;19.030;2023-04-21T05:02:44;101806.87;;;7.96;91.66
33949;BME280;20229;49.856;19.030;2023-04-21T05:07:58;101804.56;;;8.13;90.66
33949;BME280;20229;49.856;19.030;2023-04-21T05:13:16;101817.66;;;8.30;90.16
33949;BME280;20229;49.856;19.030;2023-04-21T05:18:29;101807.97;;;8.52;89.46
33949;BME280;20229;49.856;19.030;2023-04-21T05:23:43;101805.71;;;8.67;88.82
33949;BME280;20229;49.856;19.030;2023-04-21T05:28:57;101806.81;;;8.89;88.11
33949;BME280;20229;49.856;19.030;2023-04-21T05:34:11;101807.89;;;9.12;88.16
33949;BME280;20229;49.856;19.030;2023-04-21T05:39:28;101804.12;;;9.44;87.04
33949;BME280;20229;49.856;19.030;2023-04-21T05:44:42;101799.23;;;9.78;86.31
33949;BME280;20229;49.856;19.030;2023-04-21T05:49:56;101804.37;;;10.13;84.49
33949;BME280;20229;49.856;19.030;2023-04-21T05:55:10;101805.76;;;10.49;83.33
33949;BME280;20229;49.856;19.030;2023-04-21T06:00:24;101804.70;;;11.21;81.85
33949;BME280;20229;49.856;19.030;2023-04-21T06:05:38;101811.76;;;13.26;76.67
33949;BME280;20229;49.856;19.030;2023-04-21T06:10:52;101798.37;;;15.22;70.96
33949;BME280;20229;49.856;19.030;2023-04-21T06:16:06;101794.02;;;18.94;60.07
33949;BME280;20229;49.856;19.030;2023-04-21T06:21:20;101780.68;;;22.49;50.38
33949;BME280;20229;49.856;19.030;2023-04-21T06:26:34;101787.19;;;24.93;42.65
33949;BME280;20229;49.856;19.030;2023-04-21T06:31:47;101772.48;;;26.96;40.03
33949;BME280;20229;49.856;19.030;2023-04-21T06:37:01;101773.69;;;28.44;36.06
33949;BME280;20229;49.856;19.030;2023-04-21T06:42:16;101764.50;;;29.53;30.73
33949;BME280;20229;49.856;19.030;2023-04-21T06:47:30;101767.20;;;30.76;31.45
33949;BME280;20229;49.856;19.030;2023-04-21T06:52:43;101774.57;;;31.94;29.85
33949;BME280;20229;49.856;19.030;2023-04-21T06:57:57;101762.60;;;32.63;28.50
33949;BME280;20229;49.856;19.030;2023-04-21T07:03:11;101759.59;;;32.99;29.71
33949;BME280;20229;49.856;19.030;2023-04-21T07:08:25;101752.52;;;33.71;25.65
33949;BME280;20229;49.856;19.030;2023-04-21T07:13:40;101759.89;;;35.12;25.42
33949;BME280;20229;49.856;19.030;2023-04-21T07:18:54;101734.28;;;36.33;24.40
33949;BME280;20229;49.856;19.030;2023-04-21T07:24:08;101744.09;;;36.63;22.75
33949;BME280;20229;49.856;19.030;2023-04-21T07:29:22;101738.73;;;36.91;24.31
33949;BME280;20229;49.856;19.030;2023-04-21T07:34:35;101739.50;;;37.35;22.15
33949;BME280;20229;49.856;19.030;2023-04-21T07:39:50;101733.37;;;37.20;22.63
33949;BME280;20229;49.856;19.030;2023-04-21T07:45:05;101733.99;;;37.70;21.47
33949;BME280;20229;49.856;19.030;2023-04-21T07:50:19;101726.59;;;38.23;21.55
33949;BME280;20229;49.856;19.030;2023-04-21T07:55:33;101718.93;;;38.59;18.84
33949;BME280;20229;49.856;19.030;2023-04-21T08:00:50;101718.47;;;39.37;21.12
33949;BME280;20229;49.856;19.030;2023-04-21T08:06:04;101722.59;;;39.18;21.48
33949;BME280;20229;49.856;19.030;2023-04-21T08:11:19;101706.50;;;39.98;20.03
33949;BME280;20229;49.856;19.030;2023-04-21T08:16:33;101700.38;;;40.23;19.62
33949;BME280;20229;49.856;19.030;2023-04-21T08:21:47;101696.89;;;40.37;19.70
33949;BME280;20229;49.856;19.030;2023-04-21T08:27:01;101700.71;;;40.43;16.44
33949;BME280;20229;49.856;19.030;2023-04-21T08:32:15;101700.16;;;40.12;19.55
33949;BME280;20229;49.856;19.030;2023-04-21T08:37:38;101698.20;;;37.14;21.29
33949;BME280;20229;49.856;19.030;2023-04-21T08:42:52;101699.80;;;33.84;22.80
33949;BME280;20229;49.856;19.030;2023-04-21T08:48:06;101694.01;;;31.77;23.74
33949;BME280;20229;49.856;19.030;2023-04-21T08:53:22;101693.03;;;30.76;24.07
33949;BME280;20229;49.856;19.030;2023-04-21T08:58:36;101680.87;;;29.70;26.71
33949;BME280;20229;49.856;19.030;2023-04-21T09:03:51;101684.06;;;28.73;28.32
33949;BME280;20229;49.856;19.030;2023-04-21T09:09:05;101681.24;;;28.09;27.20
33949;BME280;20229;49.856;19.030;2023-04-21T09:14:19;101671.42;;;27.81;27.98
33949;BME280;20229;49.856;19.030;2023-04-21T09:19:34;101672.52;;;27.05;28.33
33949;BME280;20229;49.856;19.030;2023-04-21T09:24:48;101669.56;;;26.64;30.27
33949;BME280;20229;49.856;19.030;2023-04-21T09:32:46;101667.42;;;26.23;28.86
33949;BME280;20229;49.856;19.030;2023-04-21T09:38:12;101668.91;;;25.48;30.00
33949;BME280;20229;49.856;19.030;2023-04-21T09:43:26;101656.77;;;24.94;31.79
33949;BME280;20229;49.856;19.030;2023-04-21T09:48:42;101660.89;;;24.72;28.41
33949;BME280;20229;49.856;19.030;2023-04-21T09:54:08;101655.25;;;24.54;30.13
33949;BME280;20229;49.856;19.030;2023-04-21T09:59:29;101651.43;;;24.18;27.78
33949;BME280;20229;49.856;19.030;2023-04-21T10:04:45;101646.33;;;24.03;32.54
33949;BME280;20229;49.856;19.030;2023-04-21T10:10:00;101635.55;;;24.18;31.21
33949;BME280;20229;49.856;19.030;2023-04-21T10:26:11;101626.58;;;23.58;27.03
33949;BME280;20229;49.856;19.030;2023-04-21T10:37:19;101617.48;;;23.56;27.12
33949;BME280;20229;49.856;19.030;2023-04-21T10:42:34;101606.64;;;23.72;27.48
33949;BME280;20229;49.856;19.030;2023-04-21T10:47:51;101615.92;;;24.10;26.72
33949;BME280;20229;49.856;19.030;2023-04-21T10:53:11;101600.84;;;24.03;26.74
33949;BME280;20229;49.856;19.030;2023-04-21T10:58:25;101602.51;;;23.76;27.87
33949;BME280;20229;49.856;19.030;2023-04-21T11:03:40;101598.17;;;23.16;28.32
33949;BME280;20229;49.856;19.030;2023-04-21T11:08:55;101594.01;;;22.81;30.10
33949;BME280;20229;49.856;19.030;2023-04-21T11:14:08;101587.59;;;22.90;29.08
33949;BME280;20229;49.856;19.030;2023-04-21T11:19:22;101580.88;;;23.12;28.60
33949;BME280;20229;49.856;19.030;2023-04-21T11:24:44;101582.89;;;22.90;29.96
33949;BME280;20229;49.856;19.030;2023-04-21T11:30:02;101583.39;;;22.46;29.71
33949;BME280;20229;49.856;19.030;2023-04-21T11:35:16;101589.99;;;22.14;30.53
33949;BME280;20229;49.856;19.030;2023-04-21T11:40:30;101567.26;;;22.39;30.23
33949;BME280;20229;49.856;19.030;2023-04-21T11:45:49;101568.29;;;22.38;30.03
33949;BME280;20229;49.856;19.030;2023-04-21T11:51:04;101570.84;;;21.80;30.00
33949;BME280;20229;49.856;19.030;2023-04-21T11:56:20;101565.85;;;21.53;30.79
33949;BME280;20229;49.856;19.030;2023-04-21T12:01:47;101560.98;;;21.76;29.75
33949;BME280;20229;49.856;19.030;2023-04-21T12:07:02;101557.56;;;21.93;31.23
33949;BME280;20229;49.856;19.030;2023-04-21T12:12:15;101560.62;;;21.90;30.08
33949;BME280;20229;49.856;19.030;2023-04-21T12:17:37;101556.28;;;21.67;29.01
33949;BME280;20229;49.856;19.030;2023-04-21T12:22:51;101532.69;;;21.92;32.35
33949;BME280;20229;49.856;19.030;2023-04-21T12:28:14;101535.43;;;21.82;29.47
33949;BME280;20229;49.856;19.030;2023-04-21T12:33:30;101538.49;;;21.48;30.21
33949;BME280;20229;49.856;19.030;2023-04-21T12:38:44;101542.72;;;21.11;29.02
33949;BME280;20229;49.856;19.030;2023-04-21T12:43:58;101532.99;;;20.84;30.81
33949;BME280;20229;49.856;19.030;2023-04-21T12:49:13;101529.98;;;21.08;28.57
33949;BME280;20229;49.856;19.030;2023-04-21T12:54:29;101540.23;;;21.50;30.50
33949;BME280;20229;49.856;19.030;2023-04-21T12:59:43;101517.33;;;21.88;28.27
33949;BME280;20229;49.856;19.030;2023-04-21T13:04:57;101520.27;;;21.96;28.52
33949;BME280;20229;49.856;19.030;2023-04-21T13:10:12;101529.59;;;21.34;29.84
33949;BME280;20229;49.856;19.030;2023-04-21T13:15:26;101535.41;;;20.57;29.88
33949;BME280;20229;49.856;19.030;2023-04-21T13:20:40;101535.72;;;20.09;31.47
33949;BME280;20229;49.856;19.030;2023-04-21T13:25:54;101528.31;;;19.87;31.51
33949;BME280;20229;49.856;19.030;2023-04-21T13:31:09;101528.16;;;20.11;32.07
33949;BME280;20229;49.856;19.030;2023-04-21T13:36:23;101501.37;;;20.43;30.62
33949;BME280;20229;49.856;19.030;2023-04-21T13:41:37;101495.22;;;20.72;30.38
33949;BME280;20229;49.856;19.030;2023-04-21T13:46:50;101492.40;;;20.83;30.47
33949;BME280;20229;49.856;19.030;2023-04-21T13:52:06;101483.25;;;20.71;28.43
33949;BME280;20229;49.856;19.030;2023-04-21T13:57:20;101482.90;;;20.65;29.65
33949;BME280;20229;49.856;19.030;2023-04-21T14:02:33;101476.70;;;20.93;30.06
33949;BME280;20229;49.856;19.030;2023-04-21T14:07:47;101476.35;;;21.08;29.53
33949;BME280;20229;49.856;19.030;2023-04-21T14:13:01;101471.22;;;21.03;30.33
33949;BME280;20229;49.856;19.030;2023-04-21T14:18:15;101472.15;;;20.71;30.11
33949;BME280;20229;49.856;19.030;2023-04-21T14:23:28;101475.30;;;20.67;30.21
33949;BME280;20229;49.856;19.030;2023-04-21T14:28:42;101465.12;;;20.67;29.15
33949;BME280;20229;49.856;19.030;2023-04-21T14:33:58;101462.20;;;20.69;29.51
33949;BME280;20229;49.856;19.030;2023-04-21T14:39:11;101454.81;;;20.58;28.36
33949;BME280;20229;49.856;19.030;2023-04-21T14:44:25;101444.47;;;20.60;29.21
33949;BME280;20229;49.856;19.030;2023-04-21T14:49:39;101445.81;;;20.66;29.19
33949;BME280;20229;49.856;19.030;2023-04-21T14:54:53;101433.99;;;20.64;29.65
33949;BME280;20229;49.856;19.030;2023-04-21T15:00:07;101435.55;;;20.57;30.33
33949;BME280;20229;49.856;19.030;2023-04-21T15:05:22;101432.75;;;20.45;29.82
33949;BME280;20229;49.856;19.030;2023-04-21T15:10:36;101420.90;;;20.22;30.68
33949;BME280;20229;49.856;19.030;2023-04-21T15:15:50;101421.35;;;19.95;30.83
33949;BME280;20229;49.856;19.030;2023-04-21T15:21:06;101422.77;;;19.90;29.77
33949;BME280;20229;49.856;19.030;2023-04-21T15:26:20;101419.09;;;19.89;29.01
33949;BME280;20229;49.856;19.030;2023-04-21T15:31:36;101412.41;;;19.92;28.91
33949;BME280;20229;49.856;19.030;2023-04-21T15:36:50;101411.97;;;19.75;30.40
33949;BME280;20229;49.856;19.030;2023-04-21T15:42:05;101403.65;;;19.64;30.18
33949;BME280;20229;49.856;19.030;2023-04-21T15:47:21;101413.96;;;19.62;29.87
33949;BME280;20229;49.856;19.030;2023-04-21T15:52:35;101406.55;;;19.51;30.82
33949;BME280;20229;49.856;19.030;2023-04-21T15:57:53;101403.15;;;19.48;30.45
33949;BME280;20229;49.856;19.030;2023-04-21T16:03:07;101398.60;;;19.47;31.38
33949;BME280;20229;49.856;19.030;2023-04-21T16:08:21;101396.71;;;19.36;30.85
33949;BME280;20229;49.856;19.030;2023-04-21T16:13:35;101394.73;;;19.27;31.18
33949;BME280;20229;49.856;19.030;2023-04-21T16:18:48;101392.70;;;19.18;31.05
33949;BME280;20229;49.856;19.030;2023-04-21T16:24:03;101386.15;;;19.07;31.29
33949;BME280;20229;49.856;19.030;2023-04-21T16:29:17;101394.20;;;18.88;31.85
33949;BME280;20229;49.856;19.030;2023-04-21T16:34:34;101385.06;;;18.63;31.81
33949;BME280;20229;49.856;19.030;2023-04-21T16:39:49;101384.67;;;18.57;32.51
33949;BME280;20229;49.856;19.030;2023-04-21T16:45:04;101383.13;;;18.42;32.14
33949;BME280;20229;49.856;19.030;2023-04-21T16:50:18;101388.69;;;18.18;33.60
33949;BME280;20229;49.856;19.030;2023-04-21T16:55:32;101383.76;;;17.86;34.27
33949;BME280;20229;49.856;19.030;2023-04-21T17:00:46;101377.17;;;17.63;35.52
33949;BME280;20229;49.856;19.030;2023-04-21T17:06:01;101381.68;;;17.40;36.81
33949;BME280;20229;49.856;19.030;2023-04-21T17:11:22;101377.97;;;17.15;37.03
33949;BME280;20229;49.856;19.030;2023-04-21T17:16:36;101379.63;;;16.92;37.79
33949;BME280;20229;49.856;19.030;2023-04-21T17:21:49;101384.80;;;16.71;38.50
33949;BME280;20229;49.856;19.030;2023-04-21T17:27:03;101389.97;;;16.51;38.87
33949;BME280;20229;49.856;19.030;2023-04-21T17:32:17;101391.36;;;16.31;40.67
33949;BME280;20229;49.856;19.030;2023-04-21T17:37:32;101383.79;;;16.07;40.44
33949;BME280;20229;49.856;19.030;2023-04-21T17:42:47;101389.01;;;15.85;41.60
33949;BME280;20229;49.856;19.030;2023-04-21T17:48:01;101389.83;;;15.58;42.75
33949;BME280;20229;49.856;19.030;2023-04-21T17:53:15;101397.74;;;15.36;42.39
33949;BME280;20229;49.856;19.030;2023-04-21T17:58:30;101406.02;;;15.07;43.86
33949;BME280;20229;49.856;19.030;2023-04-21T18:03:44;101413.00;;;14.84;44.17
33949;BME280;20229;49.856;19.030;2023-04-21T18:09:00;101412.73;;;14.58;44.09
33949;BME280;20229;49.856;19.030;2023-04-21T18:14:13;101418.65;;;14.37;45.00
33949;BME280;20229;49.856;19.030;2023-04-21T18:19:28;101410.91;;;14.13;46.17
33949;BME280;20229;49.856;19.030;2023-04-21T18:24:41;101422.28;;;13.91;47.57
33949;BME280;20229;49.856;19.030;2023-04-21T18:29:55;101421.86;;;13.67;48.46
33949;BME280;20229;49.856;19.030;2023-04-21T18:35:09;101424.07;;;13.45;49.48
33949;BME280;20229;49.856;19.030;2023-04-21T18:40:23;101425.37;;;13.22;50.61
33949;BME280;20229;49.856;19.030;2023-04-21T18:45:37;101427.44;;;13.01;51.22
33949;BME280;20229;49.856;19.030;2023-04-21T18:50:52;101433.17;;;12.79;52.22
33949;BME280;20229;49.856;19.030;2023-04-21T18:56:05;101425.23;;;12.57;52.85
33949;BME280;20229;49.856;19.030;2023-04-21T19:01:19;101428.14;;;12.36;53.90
33949;BME280;20229;49.856;19.030;2023-04-21T19:06:33;101430.87;;;12.19;54.42
33949;BME280;20229;49.856;19.030;2023-04-21T19:11:48;101430.05;;;12.00;55.42
33949;BME280;20229;49.856;19.030;2023-04-21T19:17:01;101431.72;;;11.85;55.73
33949;BME280;20229;49.856;19.030;2023-04-21T19:22:16;101444.44;;;11.67;56.40
33949;BME280;20229;49.856;19.030;2023-04-21T19:27:29;101440.61;;;11.52;56.79
33949;BME280;20229;49.856;19.030;2023-04-21T19:32:43;101435.12;;;11.33;57.42
33949;BME280;20229;49.856;19.030;2023-04-21T19:37:57;101434.24;;;11.14;60.21
33949;BME280;20229;49.856;19.030;2023-04-21T19:43:11;101441.64;;;10.91;59.20
33949;BME280;20229;49.856;19.030;2023-04-21T19:48:28;101442.45;;;10.74;59.65
33949;BME280;20229;49.856;19.030;2023-04-21T19:53:41;101448.57;;;10.59;59.98
33949;BME280;20229;49.856;19.030;2023-04-21T19:58:55;101447.50;;;10.43;61.23
33949;BME280;20229;49.856;19.030;2023-04-21T20:04:09;101451.13;;;10.21;61.56
33949;BME280;20229;49.856;19.030;2023-04-21T20:09:24;101449.04;;;10.06;62.37
33949;BME280;20229;49.856;19.030;2023-04-21T20:14:37;101458.68;;;9.93;63.27
33949;BME280;20229;49.856;19.030;2023-04-21T20:19:51;101458.37;;;9.78;63.31
33949;BME280;20229;49.856;19.030;2023-04-21T20:25:06;101465.19;;;9.68;63.52
33949;BME280;20229;49.856;19.030;2023-04-21T20:30:21;101461.20;;;9.53;64.31
33949;BME280;20229;49.856;19.030;2023-04-21T20:35:35;101470.70;;;9.43;64.47
33949;BME280;20229;49.856;19.030;2023-04-21T20:40:54;101462.06;;;9.32;65.18
33949;BME280;20229;49.856;19.030;2023-04-21T20:46:08;101460.83;;;9.17;65.38
33949;BME280;20229;49.856;19.030;2023-04-21T20:51:23;101463.97;;;9.06;66.19
33949;BME280;20229;49.856;19.030;2023-04-21T20:56:39;101475.38;;;8.93;66.66
33949;BME280;20229;49.856;19.030;2023-04-21T21:01:53;101465.10;;;8.76;67.80
33949;BME280;20229;49.856;19.030;2023-04-21T21:07:07;101471.97;;;8.63;68.25
33949;BME280;20229;49.856;19.030;2023-04-21T21:12:21;101472.46;;;8.49;69.05
33949;BME280;20229;49.856;19.030;2023-04-21T21:17:35;101479.23;;;8.35;69.67
33949;BME280;20229;49.856;19.030;2023-04-21T21:22:49;101476.10;;;8.21;70.44
33949;BME280;20229;49.856;19.030;2023-04-21T21:28:04;101468.48;;;8.06;70.62
33949;BME280;20229;49.856;19.030;2023-04-21T21:33:21;101467.90;;;7.96;71.17
33949;BME280;20229;49.856;19.030;2023-04-21T21:38:34;101478.14;;;7.88;70.70
33949;BME280;20229;49.856;19.030;2023-04-21T21:43:48;101478.43;;;7.79;71.22
33949;BME280;20229;49.856;19.030;2023-04-21T21:49:03;101488.70;;;7.69;70.30
33949;BME280;20229;49.856;19.030;2023-04-21T21:54:16;101489.90;;;7.60;70.92
33949;BME280;20229;49.856;19.030;2023-04-21T21:59:30;101499.20;;;7.52;70.49
33949;BME280;20229;49.856;19.030;2023-04-21T22:04:44;101505.68;;;7.48;70.44
33949;BME280;20229;49.856;19.030;2023-04-21T22:09:58;101495.91;;;7.42;70.32
33949;BME280;20229;49.856;19.030;2023-04-21T22:15:12;101501.44;;;7.39;70.36
33949;BME280;20229;49.856;19.030;2023-04-21T22:20:26;101501.61;;;7.33;70.12
33949;BME280;20229;49.856;19.030;2023-04-21T22:25:40;101493.64;;;7.27;70.17
33949;BME280;20229;49.856;19.030;2023-04-21T22:30:54;101491.23;;;7.17;70.64
33949;BME280;20229;49.856;19.030;2023-04-21T22:36:08;101495.88;;;7.12;71.83
33949;BME280;20229;49.856;19.030;2023-04-21T22:41:23;101501.55;;;7.05;72.10
33949;BME280;20229;49.856;19.030;2023-04-21T22:46:37;101492.69;;;6.98;71.53
33949;BME280;20229;49.856;19.030;2023-04-21T22:51:51;101497.37;;;6.93;71.11
33949;BME280;20229;49.856;19.030;2023-04-21T22:57:07;101492.94;;;6.89;71.23
33949;BME280;20229;49.856;19.030;2023-04-21T23:02:21;101502.16;;;6.83;71.50
33949;BME280;20229;49.856;19.030;2023-04-21T23:07:36;101494.82;;;6.87;70.46
33949;BME280;20229;49.856;19.030;2023-04-21T23:12:50;101502.80;;;6.93;70.14
33949;BME280;20229;49.856;19.030;2023-04-21T23:18:04;101498.77;;;7.06;68.63
33949;BME280;20229;49.856;19.030;2023-04-21T23:23:18;101505.71;;;7.16;69.24
33949;BME280;20229;49.856;19.030;2023-04-21T23:28:31;101500.91;;;7.26;68.78
33949;BME280;20229;49.856;19.030;2023-04-21T23:33:45;101494.41;;;7.32;68.18
33949;BME280;20229;49.856;19.030;2023-04-21T23:38:59;101485.14;;;7.39;69.16
33949;BME280;20229;49.856;19.030;2023-04-21T23:44:14;101494.11;;;7.41;67.98
33949;BME280;20229;49.856;19.030;2023-04-21T23:49:28;101490.33;;;7.47;67.64
33949;BME280;20229;49.856;19.030;2023-04-21T23:54:41;101490.27;;;7.48;67.52
33949;BME280;20229;49.856;19.030;2023-04-21T23:59:56;101483.80;;;7.52;67.50
